Petrolandia, Brazil
Current Conditions -  °F | °C
As of 11:00 AM on Saturday 22 Nov 2014 (Local Time) from SBJU Reporting Station
Few Clouds Few Clouds  
Wind Chill: 90°   Ceiling: Unl
Heat Index: 91°   Visibility: 6mi
Dew Point: 64°   Wind: 8mph
Humidity: 43%   Direction: 170°S
Pressure: 30"   Gusts: NA
Location:  8.98°S, 38.22°W
Report Text: SBJU 221400Z 17007KT 9999 FEW022 32/18 Q1016
Loading
Personal Weather Stations






























Interactive Weather Map New forecast layout! Learn more

10-Day Weather Forecast

Advertisements
Track Severe Weather on mobile